< < Back
Terminal Aerodrome Forecast


Current Version              Previous Versions:   1  2  3  4  5  6  7  8  9  

Terminal Aerodrome Forecast

361
FTUS42 KGSP 292339
TAFHKY
TAF
KHKY 292339Z 3000/3024 21007KT P6SM SCT060 BKN250
     FM300400 24006KT P6SM BKN060
     FM300800 30007KT P6SM SCT160
     FM301400 32012G22KT P6SM FEW250
     FM302300 32008KT P6SM SKC=

Latest METAR

984
SAUS70 KWBC 300500 RRD
MTRHKY
METAR KHKY 300453Z AUTO 21003KT 10SM BKN060 OVC080 07/M04 A2999 RMK AO2
SLP148 T00671039 400891039


USA.gov is the U.S. government's official web portal to all federal, state and local government web resources and services.